Time;durP1;ratioP1;P1;durP2;ratioP2;P2;SDS_P1;SDS_P2;PMS_P1;PMS_P2;Temp;Humidity;BMP_temperature;BMP_pressure;BME280_temperature;BME280_humidity;BME280_pressure;Samples;Min_cycle;Max_cycle;Signal;HPM_P1;HPM_P2
2021/10/17 00:01:52;;;;;;;;;;;;;;;8.76;100.00;99455.88;4937171;28;19923;-66
2021/10/17 00:04:17;;;;;;;;;;;;;;;8.91;100.00;99466.75;4930319;28;19926;-66
2021/10/17 00:06:43;;;;;;;;;;;;;;;8.58;100.00;99471.59;4934797;28;19931;-66
2021/10/17 00:09:08;;;;;;;;;;;;;;;8.48;100.00;99472.59;4929536;28;19923;-66
2021/10/17 00:11:33;;;;;;;;;;;;;;;8.80;100.00;99461.78;4999383;28;20005;-65
2021/10/17 00:13:59;;;;;;;;;;;;;;;8.70;100.00;99471.38;4950604;28;20336;-65
2021/10/17 00:16:24;;;;;;;;;;;;;;;8.33;100.00;99476.22;4970784;28;19913;-65
2021/10/17 00:18:50;;;;;;;;;;;;;;;8.58;100.00;99476.72;4956808;28;20419;-65
2021/10/17 00:21:15;;;;;;;;;;;;;;;8.44;100.00;99483.78;4942640;28;19915;-65
2021/10/17 00:23:41;;;;;;;;;;;;;;;8.74;100.00;99485.88;4935347;28;19933;-66
2021/10/17 00:26:06;;;;;;;;;;;;;;;8.73;100.00;99479.03;4935019;28;19976;-66
2021/10/17 00:28:32;;;;;;;;;;;;;;;8.73;100.00;99476.44;4930767;28;19972;-66
2021/10/17 00:30:57;;;;;;;;;;;;;;;8.77;100.00;99478.09;4937879;28;19930;-66
2021/10/17 00:33:23;;;;;;;;;;;;;;;8.30;100.00;99479.69;4931706;28;19923;-68
2021/10/17 00:35:51;;;;;;;;;;;;;;;8.35;100.00;99474.50;4936079;28;20308;-62
2021/10/17 00:38:17;;;;;;;;;;;;;;;7.53;100.00;99485.00;4948610;28;20400;-63
2021/10/17 00:40:42;;;;;;;;;;;;;;;7.45;100.00;99485.06;4959217;28;19972;-64
2021/10/17 00:43:08;;;;;;;;;;;;;;;7.95;100.00;99486.16;4945666;28;20292;-64
2021/10/17 00:45:33;;;;;;;;;;;;;;;8.33;100.00;99486.50;4948670;28;20350;-64
2021/10/17 00:47:59;;;;;;;;;;;;;;;8.56;100.00;99479.31;4953335;28;19974;-64
2021/10/17 00:50:25;;;;;;;;;;;;;;;8.65;100.00;99478.31;4945962;28;19996;-63
2021/10/17 00:52:51;;;;;;;;;;;;;;;8.58;100.00;99479.28;4951678;28;19969;-64
2021/10/17 00:55:17;;;;;;;;;;;;;;;8.49;100.00;99479.44;4955536;28;19917;-63
2021/10/17 00:57:43;;;;;;;;;;;;;;;8.23;100.00;99484.91;4960801;28;19948;-63
2021/10/17 01:00:09;;;;;;;;;;;;;;;8.33;100.00;99487.34;4966170;28;19931;-63
2021/10/17 01:02:35;;;;;;;;;;;;;;;8.11;100.00;99480.81;4934731;28;20402;-63
2021/10/17 01:05:00;;;;;;;;;;;;;;;8.16;100.00;99489.28;4933375;28;19934;-63
2021/10/17 01:07:26;;;;;;;;;;;;;;;8.37;100.00;99478.72;4938782;28;20380;-63
2021/10/17 01:09:51;;;;;;;;;;;;;;;8.54;100.00;99475.91;4932043;28;19922;-62
2021/10/17 01:12:16;;;;;;;;;;;;;;;8.13;100.00;99479.09;4932451;28;19919;-64
2021/10/17 01:14:42;;;;;;;;;;;;;;;8.40;100.00;99479.56;4934908;28;19919;-65
2021/10/17 01:17:07;;;;;;;;;;;;;;;8.42;100.00;99475.28;4936433;28;20769;-64
2021/10/17 01:19:33;;;;;;;;;;;;;;;8.41;100.00;99474.41;4933335;28;20296;-65
2021/10/17 01:21:58;;;;;;;;;;;;;;;7.74;100.00;99471.06;4931772;28;19926;-64
2021/10/17 01:24:24;;;;;;;;;;;;;;;8.14;100.00;99465.38;4903776;28;19927;-64
2021/10/17 01:26:49;;;;;;;;;;;;;;;8.34;100.00;99468.50;4938143;28;20029;-65
2021/10/17 01:29:16;;;;;;;;;;;;;;;8.49;100.00;99461.47;4996840;28;19918;-64
2021/10/17 01:31:41;;;;;;;;;;;;;;;8.52;100.00;99462.25;4932831;28;19927;-64
2021/10/17 01:34:07;;;;;;;;;;;;;;;8.50;100.00;99468.28;4992217;28;19927;-64
2021/10/17 01:36:33;;;;;;;;;;;;;;;8.52;100.00;99467.38;4936826;28;19937;-64
2021/10/17 01:38:58;;;;;;;;;;;;;;;8.56;100.00;99463.06;4936941;28;19919;-64
2021/10/17 01:41:24;;;;;;;;;;;;;;;8.63;100.00;99466.38;4933150;28;20037;-64
2021/10/17 01:43:49;;;;;;;;;;;;;;;8.64;100.00;99465.50;4932987;28;19922;-64
2021/10/17 01:46:15;;;;;;;;;;;;;;;8.36;100.00;99455.66;4940811;28;19922;-68
2021/10/17 01:48:40;;;;;;;;;;;;;;;8.42;100.00;99459.88;4947614;28;19919;-68
2021/10/17 01:51:05;;;;;;;;;;;;;;;8.42;100.00;99460.72;4945520;28;20306;-68
2021/10/17 01:53:31;;;;;;;;;;;;;;;8.34;100.00;99460.78;4940790;28;20368;-68
2021/10/17 01:55:57;;;;;;;;;;;;;;;8.01;100.00;99458.75;4932659;28;19925;-67
2021/10/17 01:58:23;;;;;;;;;;;;;;;8.27;100.00;99453.22;4931084;28;19923;-68
2021/10/17 02:00:48;;;;;;;;;;;;;;;8.47;100.00;99458.09;4929394;28;19923;-68
2021/10/17 02:03:14;;;;;;;;;;;;;;;8.01;100.00;99459.59;4940080;28;20013;-65
2021/10/17 02:05:39;;;;;;;;;;;;;;;7.93;100.00;99456.28;4943484;28;19921;-64
2021/10/17 02:08:04;;;;;;;;;;;;;;;8.16;100.00;99451.69;4907843;28;19924;-64
2021/10/17 02:10:30;;;;;;;;;;;;;;;8.06;100.00;99441.56;4943785;28;20013;-64
2021/10/17 02:12:55;;;;;;;;;;;;;;;8.26;100.00;99442.13;4937249;28;20022;-66
2021/10/17 02:15:21;;;;;;;;;;;;;;;8.09;100.00;99441.50;4896536;28;19915;-66
2021/10/17 02:17:46;;;;;;;;;;;;;;;8.30;100.00;99446.34;4938722;28;19913;-66
2021/10/17 02:20:12;;;;;;;;;;;;;;;8.42;100.00;99434.22;4954355;28;20431;-66
2021/10/17 02:22:37;;;;;;;;;;;;;;;8.10;100.00;99435.53;4938357;28;19919;-67
2021/10/17 02:25:03;;;;;;;;;;;;;;;8.13;100.00;99422.66;4937315;28;19960;-68
2021/10/17 02:27:28;;;;;;;;;;;;;;;8.11;100.00;99424.38;4932760;28;20439;-66
2021/10/17 02:29:57;;;;;;;;;;;;;;;7.68;100.00;99419.88;4944765;28;19918;-66
2021/10/17 02:32:22;;;;;;;;;;;;;;;7.29;100.00;99420.34;4960060;28;20014;-66
2021/10/17 02:34:48;;;;;;;;;;;;;;;7.68;100.00;99420.72;4951815;28;20004;-66
2021/10/17 02:37:13;;;;;;;;;;;;;;;7.87;100.00;99407.66;4935666;28;20356;-66
2021/10/17 02:39:39;;;;;;;;;;;;;;;7.94;100.00;99404.97;4937627;28;20594;-66
2021/10/17 02:42:04;;;;;;;;;;;;;;;7.68;100.00;99395.06;4964788;28;20286;-67
2021/10/17 02:44:30;;;;;;;;;;;;;;;7.91;100.00;99401.59;4950971;28;19932;-64
2021/10/17 02:46:56;;;;;;;;;;;;;;;7.86;100.00;99404.22;4956324;28;19926;-64
2021/10/17 02:49:22;;;;;;;;;;;;;;;7.73;100.00;99407.81;4952979;28;19913;-64
2021/10/17 02:51:47;;;;;;;;;;;;;;;7.33;100.00;99408.38;4953700;28;19926;-64
2021/10/17 02:54:13;;;;;;;;;;;;;;;7.58;100.00;99413.19;4951759;28;19922;-62
2021/10/17 02:56:38;;;;;;;;;;;;;;;7.74;100.00;99412.09;4940443;28;19927;-67
2021/10/17 02:59:04;;;;;;;;;;;;;;;7.56;100.00;99410.63;4929890;28;20443;-67
2021/10/17 03:01:29;;;;;;;;;;;;;;;7.66;100.00;99426.72;4938159;28;20021;-67
2021/10/17 03:03:54;;;;;;;;;;;;;;;7.90;100.00;99426.41;4934200;28;19922;-67
2021/10/17 03:06:25;;;;;;;;;;;;;;;8.08;100.00;99429.56;4931826;28;19942;-67
2021/10/17 03:08:50;;;;;;;;;;;;;;;8.02;100.00;99427.09;4950435;28;19914;-67
2021/10/17 03:11:16;;;;;;;;;;;;;;;7.92;100.00;99429.78;4933436;28;20002;-67
2021/10/17 03:13:42;;;;;;;;;;;;;;;8.02;100.00;99424.53;4929554;28;20467;-67
2021/10/17 03:16:07;;;;;;;;;;;;;;;8.12;100.00;99423.53;4933682;28;19918;-67
2021/10/17 03:18:33;;;;;;;;;;;;;;;7.99;100.00;99419.44;4986966;28;19919;-67
2021/10/17 03:20:58;;;;;;;;;;;;;;;8.05;100.00;99414.22;4939050;28;20250;-67
2021/10/17 03:23:24;;;;;;;;;;;;;;;7.76;100.00;99410.38;4931395;28;20242;-67
2021/10/17 03:25:49;;;;;;;;;;;;;;;8.07;100.00;99415.03;4930815;28;19918;-67
2021/10/17 03:28:15;;;;;;;;;;;;;;;8.02;100.00;99409.13;4932986;28;19919;-67
2021/10/17 03:30:40;;;;;;;;;;;;;;;7.53;100.00;99416.66;4935569;28;19968;-67
2021/10/17 03:33:05;;;;;;;;;;;;;;;7.69;100.00;99412.16;4932688;28;20391;-67
2021/10/17 03:35:31;;;;;;;;;;;;;;;7.54;100.00;99413.22;4938708;28;20026;-68
2021/10/17 03:37:56;;;;;;;;;;;;;;;7.64;100.00;99416.53;4949615;28;19934;-68
2021/10/17 03:40:22;;;;;;;;;;;;;;;7.89;100.00;99411.03;4955046;28;20008;-68
2021/10/17 03:42:47;;;;;;;;;;;;;;;7.89;100.00;99414.47;4932587;28;19923;-67
2021/10/17 03:45:13;;;;;;;;;;;;;;;8.08;100.00;99414.19;4929012;28;19946;-67
2021/10/17 03:47:38;;;;;;;;;;;;;;;7.74;100.00;99409.53;4936603;28;19925;-67
2021/10/17 03:50:04;;;;;;;;;;;;;;;7.58;100.00;99410.63;4934408;28;19926;-67
2021/10/17 03:52:29;;;;;;;;;;;;;;;7.74;100.00;99412.09;4932401;28;20377;-67
2021/10/17 03:54:55;;;;;;;;;;;;;;;7.88;100.00;99417.88;4932540;28;20428;-67
2021/10/17 03:57:20;;;;;;;;;;;;;;;7.89;100.00;99414.47;4929735;28;20384;-68
2021/10/17 03:59:45;;;;;;;;;;;;;;;7.94;100.00;99407.53;4947670;28;20278;-64
2021/10/17 04:02:11;;;;;;;;;;;;;;;7.86;100.00;99414.47;4938523;28;20364;-64
2021/10/17 04:04:36;;;;;;;;;;;;;;;8.01;100.00;99422.84;4939000;28;20009;-64
2021/10/17 04:07:02;;;;;;;;;;;;;;;8.09;100.00;99414.13;4939122;28;20006;-64
2021/10/17 04:09:27;;;;;;;;;;;;;;;7.88;100.00;99412.75;4942209;28;19971;-65
2021/10/17 04:11:53;;;;;;;;;;;;;;;8.22;100.00;99414.81;4939394;28;19915;-65
2021/10/17 04:14:18;;;;;;;;;;;;;;;8.34;100.00;99409.47;4938480;28;19919;-65
2021/10/17 04:16:43;;;;;;;;;;;;;;;8.50;100.00;99409.25;4935195;28;19919;-65
2021/10/17 04:19:09;;;;;;;;;;;;;;;8.23;100.00;99408.78;4944943;28;19923;-64
2021/10/17 04:21:34;;;;;;;;;;;;;;;8.26;100.00;99408.75;4934522;28;20020;-65
2021/10/17 04:24:00;;;;;;;;;;;;;;;8.21;100.00;99410.56;4941250;28;20368;-64
2021/10/17 04:26:25;;;;;;;;;;;;;;;7.94;100.00;99404.13;4930130;28;20005;-65
2021/10/17 04:28:57;;;;;;;;;;;;;;;7.78;100.00;99411.19;4941892;28;20029;-65
2021/10/17 04:31:22;;;;;;;;;;;;;;;7.86;100.00;99409.34;4908387;28;20460;-64
2021/10/17 04:33:48;;;;;;;;;;;;;;;7.98;100.00;99413.44;4960374;28;19957;-64
2021/10/17 04:36:13;;;;;;;;;;;;;;;8.06;100.00;99405.66;4944683;28;19927;-65
2021/10/17 04:38:39;;;;;;;;;;;;;;;8.25;100.00;99408.78;4947925;28;19926;-65
2021/10/17 04:41:04;;;;;;;;;;;;;;;8.11;100.00;99403.88;4950890;28;19919;-64
2021/10/17 04:43:30;;;;;;;;;;;;;;;8.13;100.00;99400.41;4951064;28;19919;-66
2021/10/17 04:45:55;;;;;;;;;;;;;;;8.01;100.00;99394.63;4951058;28;19919;-66
2021/10/17 04:48:21;;;;;;;;;;;;;;;7.81;100.00;99389.78;4954413;28;19936;-67
2021/10/17 04:50:46;;;;;;;;;;;;;;;8.31;100.00;99399.25;4961851;28;19921;-66
2021/10/17 04:53:11;;;;;;;;;;;;;;;8.10;100.00;99390.19;4959920;28;19922;-66
2021/10/17 04:55:37;;;;;;;;;;;;;;;8.15;100.00;99390.13;4924717;28;19965;-67
2021/10/17 04:58:03;;;;;;;;;;;;;;;8.31;100.00;99401.00;4923892;29;19921;-66
2021/10/17 05:00:29;;;;;;;;;;;;;;;8.46;100.00;99407.59;4924348;28;19919;-68
2021/10/17 05:02:54;;;;;;;;;;;;;;;8.37;100.00;99412.00;4932066;28;19915;-68
2021/10/17 05:05:20;;;;;;;;;;;;;;;8.17;100.00;99403.78;4928191;28;20288;-67
2021/10/17 05:07:45;;;;;;;;;;;;;;;7.77;100.00;99406.94;4934156;28;20396;-68
2021/10/17 05:10:10;;;;;;;;;;;;;;;8.18;100.00;99408.88;4931398;28;19919;-68
2021/10/17 05:12:36;;;;;;;;;;;;;;;8.58;100.00;99412.53;4935576;28;19921;-68
2021/10/17 05:15:01;;;;;;;;;;;;;;;8.53;100.00;99411.75;4949405;28;19922;-68
2021/10/17 05:17:27;;;;;;;;;;;;;;;8.82;100.00;99412.97;4933503;28;20390;-68
2021/10/17 05:19:52;;;;;;;;;;;;;;;8.84;100.00;99412.06;4908097;28;20404;-68
2021/10/17 05:22:18;;;;;;;;;;;;;;;8.91;100.00;99412.81;4957894;28;19930;-68
2021/10/17 05:24:43;;;;;;;;;;;;;;;8.91;100.00;99418.78;4946727;28;19928;-68
2021/10/17 05:27:08;;;;;;;;;;;;;;;8.97;100.00;99415.28;4950442;28;20514;-68
2021/10/17 05:29:34;;;;;;;;;;;;;;;8.91;100.00;99423.09;4905414;28;20312;-65
2021/10/17 05:31:59;;;;;;;;;;;;;;;8.73;100.00;99414.81;4951580;28;20386;-65
2021/10/17 05:34:24;;;;;;;;;;;;;;;8.83;100.00;99419.81;4964153;28;19917;-65
2021/10/17 05:36:50;;;;;;;;;;;;;;;8.86;100.00;99424.91;4943100;28;19915;-64
2021/10/17 05:39:15;;;;;;;;;;;;;;;8.84;100.00;99416.38;4934123;28;19914;-68
2021/10/17 05:41:41;;;;;;;;;;;;;;;8.68;100.00;99421.78;4929942;28;19970;-68
2021/10/17 05:44:06;;;;;;;;;;;;;;;8.58;100.00;99418.53;4925746;28;19975;-67
2021/10/17 05:46:31;;;;;;;;;;;;;;;8.72;100.00;99423.41;4927844;28;19931;-68
2021/10/17 05:48:58;;;;;;;;;;;;;;;8.65;100.00;99426.97;4926014;28;20021;-68
2021/10/17 05:51:23;;;;;;;;;;;;;;;8.58;100.00;99428.78;4923061;28;20138;-68
2021/10/17 05:53:48;;;;;;;;;;;;;;;8.21;100.00;99425.97;4903606;28;20616;-66
2021/10/17 05:56:15;;;;;;;;;;;;;;;8.13;100.00;99438.03;4927922;28;20049;-68
2021/10/17 05:58:40;;;;;;;;;;;;;;;8.16;100.00;99435.41;4980283;28;19923;-68
2021/10/17 06:01:06;;;;;;;;;;;;;;;8.40;100.00;99438.50;4933224;28;19944;-68
2021/10/17 06:03:31;;;;;;;;;;;;;;;8.85;100.00;99439.47;4938808;28;20500;-68
2021/10/17 06:06:01;;;;;;;;;;;;;;;8.72;100.00;99437.97;4927533;28;20411;-68
2021/10/17 06:08:26;;;;;;;;;;;;;;;8.91;100.00;99438.50;4928636;28;19919;-68
2021/10/17 06:10:52;;;;;;;;;;;;;;;8.42;100.00;99445.31;4994541;28;20423;-68
2021/10/17 06:13:18;;;;;;;;;;;;;;;8.28;100.00;99442.94;4929939;28;19958;-68
2021/10/17 06:15:43;;;;;;;;;;;;;;;8.71;100.00;99447.41;4945973;28;20031;-68
2021/10/17 06:18:08;;;;;;;;;;;;;;;8.74;100.00;99449.91;4941428;28;19934;-68
2021/10/17 06:20:34;;;;;;;;;;;;;;;8.73;100.00;99461.03;4899809;28;19938;-67
2021/10/17 06:22:59;;;;;;;;;;;;;;;9.11;100.00;99456.13;4936012;28;19923;-67
2021/10/17 06:25:25;;;;;;;;;;;;;;;9.13;100.00;99454.38;4952918;28;19923;-65
2021/10/17 06:27:53;;;;;;;;;;;;;;;8.72;100.00;99449.09;4957831;28;19968;-64
2021/10/17 06:30:19;;;;;;;;;;;;;;;9.03;100.00;99453.66;4958994;28;19923;-65
2021/10/17 06:32:44;;;;;;;;;;;;;;;8.83;100.00;99445.50;4949553;28;19961;-65
2021/10/17 06:35:13;;;;;;;;;;;;;;;9.09;100.00;99457.88;4935308;28;19915;-68
2021/10/17 06:37:38;;;;;;;;;;;;;;;9.17;100.00;99446.56;4936896;28;19929;-67
2021/10/17 06:40:04;;;;;;;;;;;;;;;8.95;100.00;99452.97;4903083;28;19922;-67
2021/10/17 06:42:29;;;;;;;;;;;;;;;8.53;100.00;99455.41;4931492;28;20451;-67
2021/10/17 06:44:55;;;;;;;;;;;;;;;8.83;100.00;99456.63;4932430;28;19927;-67
2021/10/17 06:47:20;;;;;;;;;;;;;;;9.11;100.00;99451.81;4903983;28;20972;-68
2021/10/17 06:49:45;;;;;;;;;;;;;;;9.44;100.00;99449.44;4991240;28;20400;-67
2021/10/17 06:52:11;;;;;;;;;;;;;;;9.45;100.00;99455.47;4901564;29;19916;-66
2021/10/17 06:54:36;;;;;;;;;;;;;;;9.10;100.00;99455.28;4919725;28;19925;-68
2021/10/17 06:57:01;;;;;;;;;;;;;;;9.29;100.00;99455.75;4932243;28;19918;-68
2021/10/17 06:59:27;;;;;;;;;;;;;;;9.40;100.00;99450.41;4941351;28;19917;-65
2021/10/17 07:01:52;;;;;;;;;;;;;;;9.13;100.00;99452.63;4957915;28;20373;-65
2021/10/17 07:04:18;;;;;;;;;;;;;;;9.37;100.00;99458.16;4951330;28;19968;-65
2021/10/17 07:06:44;;;;;;;;;;;;;;;9.30;100.00;99464.31;4955442;28;19923;-65
2021/10/17 07:09:10;;;;;;;;;;;;;;;9.35;100.00;99460.78;4957858;28;20896;-64
2021/10/17 07:11:35;;;;;;;;;;;;;;;9.47;100.00;99464.84;4956103;28;19925;-65
2021/10/17 07:14:00;;;;;;;;;;;;;;;9.37;100.00;99459.03;4956364;28;20048;-64
2021/10/17 07:16:26;;;;;;;;;;;;;;;9.39;100.00;99462.41;4952081;28;20399;-65
2021/10/17 07:18:51;;;;;;;;;;;;;;;9.11;100.00;99464.66;4958553;28;19928;-65
2021/10/17 07:21:17;;;;;;;;;;;;;;;9.28;100.00;99466.06;4960019;28;19929;-63
2021/10/17 07:23:42;;;;;;;;;;;;;;;9.34;100.00;99468.53;4952633;28;20021;-64
2021/10/17 07:26:07;;;;;;;;;;;;;;;9.47;100.00;99469.97;4948226;28;19941;-66
2021/10/17 07:28:33;;;;;;;;;;;;;;;9.38;100.00;99465.88;4954470;28;20024;-64
2021/10/17 07:30:58;;;;;;;;;;;;;;;9.67;100.00;99472.16;4956435;28;21055;-68
2021/10/17 07:33:24;;;;;;;;;;;;;;;9.57;100.00;99479.19;4954631;28;19919;-67
2021/10/17 07:35:49;;;;;;;;;;;;;;;9.42;100.00;99476.94;4934310;28;19932;-67
2021/10/17 07:38:15;;;;;;;;;;;;;;;9.31;100.00;99476.31;4929758;28;19923;-67
2021/10/17 07:40:40;;;;;;;;;;;;;;;9.45;100.00;99476.88;4927560;28;19919;-67
2021/10/17 07:43:05;;;;;;;;;;;;;;;9.49;100.00;99483.66;4933531;28;20009;-67
2021/10/17 07:45:32;;;;;;;;;;;;;;;9.44;100.00;99482.88;4929305;28;20068;-67
2021/10/17 07:47:57;;;;;;;;;;;;;;;9.66;100.00;99482.47;4938082;28;19921;-67
2021/10/17 07:50:22;;;;;;;;;;;;;;;9.45;100.00;99489.72;4937090;28;20387;-64
2021/10/17 07:52:49;;;;;;;;;;;;;;;9.50;100.00;99493.03;4952575;28;19921;-64
2021/10/17 07:55:14;;;;;;;;;;;;;;;9.21;100.00;99489.31;4933733;28;19941;-64
2021/10/17 07:57:44;;;;;;;;;;;;;;;9.22;100.00;99492.75;4947951;28;19919;-64
2021/10/17 08:00:09;;;;;;;;;;;;;;;9.13;100.00;99491.19;4955399;28;20027;-68
2021/10/17 08:02:35;;;;;;;;;;;;;;;9.38;100.00;99494.13;4951248;28;19978;-68
2021/10/17 08:05:00;;;;;;;;;;;;;;;9.25;100.00;99484.97;4943358;28;19922;-67
2021/10/17 08:07:25;;;;;;;;;;;;;;;9.31;100.00;99489.16;4953274;28;19923;-68
2021/10/17 08:09:51;;;;;;;;;;;;;;;9.46;100.00;99491.41;4953662;28;20031;-68
2021/10/17 08:12:16;;;;;;;;;;;;;;;9.56;100.00;99485.22;4941988;28;19997;-63
2021/10/17 08:14:41;;;;;;;;;;;;;;;9.61;100.00;99483.41;4905913;28;19973;-64
2021/10/17 08:17:07;;;;;;;;;;;;;;;9.67;100.00;99486.72;4954374;28;20378;-63
2021/10/17 08:19:32;;;;;;;;;;;;;;;9.74;100.00;99483.13;4937393;28;19981;-67
2021/10/17 08:21:57;;;;;;;;;;;;;;;9.95;100.00;99482.69;4937632;28;19922;-68
2021/10/17 08:24:23;;;;;;;;;;;;;;;9.67;100.00;99476.44;4954520;28;19932;-68
2021/10/17 08:26:48;;;;;;;;;;;;;;;9.78;100.00;99489.91;4939198;28;20342;-67
2021/10/17 08:29:14;;;;;;;;;;;;;;;9.77;100.00;99488.22;4946989;28;19965;-67
2021/10/17 08:31:39;;;;;;;;;;;;;;;9.89;100.00;99482.81;4954383;28;20352;-68
2021/10/17 08:34:04;;;;;;;;;;;;;;;9.86;100.00;99482.88;4953835;28;19919;-68
2021/10/17 08:36:30;;;;;;;;;;;;;;;9.97;100.00;99486.09;4940040;28;19953;-67
2021/10/17 08:38:55;;;;;;;;;;;;;;;10.05;100.00;99489.31;4947868;28;20021;-67
2021/10/17 08:41:20;;;;;;;;;;;;;;;9.73;100.00;99490.00;4970212;28;20426;-67
2021/10/17 08:43:46;;;;;;;;;;;;;;;9.86;100.00;99498.31;4931210;28;20026;-67
2021/10/17 08:46:12;;;;;;;;;;;;;;;9.77;100.00;99495.94;4941433;28;19930;-67
2021/10/17 08:48:38;;;;;;;;;;;;;;;9.86;100.00;99497.47;4939627;28;19930;-67
2021/10/17 08:51:05;;;;;;;;;;;;;;;10.05;100.00;99503.91;4964112;28;20588;-67
2021/10/17 08:53:30;;;;;;;;;;;;;;;10.10;100.00;99506.38;4979054;28;19914;-67
2021/10/17 08:55:56;;;;;;;;;;;;;;;10.17;100.00;99502.78;4951636;28;19941;-67
2021/10/17 08:58:21;;;;;;;;;;;;;;;10.31;100.00;99505.97;4953371;28;20012;-68
2021/10/17 09:00:46;;;;;;;;;;;;;;;10.00;100.00;99505.75;4954947;28;20006;-67
2021/10/17 09:03:12;;;;;;;;;;;;;;;10.10;100.00;99504.66;4950399;28;19919;-67
2021/10/17 09:05:39;;;;;;;;;;;;;;;10.33;100.00;99506.78;4947509;28;19921;-67
2021/10/17 09:08:05;;;;;;;;;;;;;;;10.70;100.00;99499.88;4938402;28;19947;-67
2021/10/17 09:10:30;;;;;;;;;;;;;;;10.85;100.00;99509.81;4937325;28;20285;-67
2021/10/17 09:13:05;;;;;;;;;;;;;;;10.71;100.00;99509.31;4950030;28;19929;-67
2021/10/17 09:15:31;;;;;;;;;;;;;;;10.50;100.00;99505.53;4898334;28;19977;-67
2021/10/17 09:18:13;;;;;;;;;;;;;;;11.07;100.00;99503.22;4957436;28;19927;-67
2021/10/17 09:20:48;;;;;;;;;;;;;;;10.87;100.00;99500.31;4951116;28;20370;-67
2021/10/17 09:23:13;;;;;;;;;;;;;;;11.18;100.00;99490.06;4949968;28;19934;-67
2021/10/17 09:25:39;;;;;;;;;;;;;;;10.83;100.00;99499.56;4957489;28;19923;-67
2021/10/17 09:28:14;;;;;;;;;;;;;;;10.75;100.00;99493.75;4949427;28;19918;-67
2021/10/17 09:30:39;;;;;;;;;;;;;;;11.12;100.00;99490.22;4952189;28;19953;-67
2021/10/17 09:33:15;;;;;;;;;;;;;;;11.07;100.00;99489.50;4951355;28;20000;-67
2021/10/17 09:35:41;;;;;;;;;;;;;;;11.36;100.00;99485.28;4949461;28;20016;-68
2021/10/17 09:38:07;;;;;;;;;;;;;;;11.43;100.00;99486.84;4957525;28;19919;-67
2021/10/17 09:40:34;;;;;;;;;;;;;;;11.57;100.00;99487.28;4957519;28;20373;-67
2021/10/17 09:43:01;;;;;;;;;;;;;;;11.78;100.00;99487.56;4960522;28;19923;-69
2021/10/17 09:45:26;;;;;;;;;;;;;;;11.54;100.00;99482.22;4942853;28;19918;-68
2021/10/17 09:47:52;;;;;;;;;;;;;;;11.48;100.00;99488.38;4938828;28;19919;-67
2021/10/17 09:50:18;;;;;;;;;;;;;;;11.77;100.00;99484.13;4956520;28;19919;-67
2021/10/17 09:52:53;;;;;;;;;;;;;;;11.96;100.00;99484.47;4957945;28;19969;-68
2021/10/17 09:55:19;;;;;;;;;;;;;;;12.00;100.00;99493.81;4943126;28;19927;-67
2021/10/17 09:57:46;;;;;;;;;;;;;;;11.85;100.00;99489.06;4920456;28;22838;-68
2021/10/17 10:00:11;;;;;;;;;;;;;;;11.64;100.00;99493.13;4980313;28;19917;-66
2021/10/17 10:02:37;;;;;;;;;;;;;;;12.07;100.00;99489.31;5013975;28;19914;-66
2021/10/17 10:05:03;;;;;;;;;;;;;;;12.08;100.00;99493.56;5013084;28;19918;-66
2021/10/17 10:07:28;;;;;;;;;;;;;;;12.22;100.00;99488.81;5013093;28;20474;-66
2021/10/17 10:09:54;;;;;;;;;;;;;;;11.96;100.00;99493.94;4996997;28;19917;-66
2021/10/17 10:12:20;;;;;;;;;;;;;;;12.46;100.00;99494.13;5013224;28;19924;-66
2021/10/17 10:14:49;;;;;;;;;;;;;;;12.22;100.00;99486.25;5012929;28;19917;-66
2021/10/17 10:17:15;;;;;;;;;;;;;;;12.37;100.00;99490.09;5012797;28;19971;-66
2021/10/17 10:19:41;;;;;;;;;;;;;;;12.43;100.00;99495.06;5012899;28;19925;-66
2021/10/17 10:22:06;;;;;;;;;;;;;;;12.43;100.00;99484.75;5012931;28;20020;-66
2021/10/17 10:24:32;;;;;;;;;;;;;;;12.67;100.00;99477.09;5012530;28;19918;-66
2021/10/17 10:26:58;;;;;;;;;;;;;;;12.85;100.00;99475.63;5010976;28;19913;-66
2021/10/17 10:29:26;;;;;;;;;;;;;;;13.02;100.00;99475.88;5012889;28;20434;-66
2021/10/17 10:31:58;;;;;;;;;;;;;;;13.15;100.00;99478.91;5014031;28;19922;-66
2021/10/17 10:34:23;;;;;;;;;;;;;;;12.76;100.00;99487.13;5012457;28;19919;-66
2021/10/17 10:36:49;;;;;;;;;;;;;;;12.54;100.00;99482.66;5012657;28;19925;-66
2021/10/17 10:39:16;;;;;;;;;;;;;;;12.79;100.00;99479.25;4985448;28;19970;-64
2021/10/17 10:41:46;;;;;;;;;;;;;;;13.02;100.00;99482.81;4954467;28;19999;-64
2021/10/17 10:44:11;;;;;;;;;;;;;;;13.24;100.00;99486.34;4902054;28;19937;-64
2021/10/17 10:46:37;;;;;;;;;;;;;;;13.47;100.00;99485.53;4940528;28;19918;-64
2021/10/17 10:49:02;;;;;;;;;;;;;;;13.32;100.00;99491.25;4928652;28;19922;-64
2021/10/17 10:51:41;;;;;;;;;;;;;;;12.95;100.00;99490.78;4947917;28;20444;-63
2021/10/17 10:54:06;;;;;;;;;;;;;;;13.55;100.00;99493.06;4973982;28;20020;-65
2021/10/17 10:56:41;;;;;;;;;;;;;;;13.67;100.00;99497.78;4934643;28;19980;-64
2021/10/17 10:59:10;;;;;;;;;;;;;;;14.43;100.00;99498.31;4940828;28;20424;-64
2021/10/17 11:01:54;;;;;;;;;;;;;;;13.75;100.00;99494.88;4966419;28;19922;-64
2021/10/17 11:04:38;;;;;;;;;;;;;;;14.58;100.00;99486.53;4933437;28;19998;-64
2021/10/17 11:07:15;;;;;;;;;;;;;;;15.00;100.00;99483.91;4936400;28;20018;-64
2021/10/17 11:09:41;;;;;;;;;;;;;;;14.75;100.00;99478.06;4923298;28;19965;-64
2021/10/17 11:12:07;;;;;;;;;;;;;;;14.58;100.00;99482.19;4955733;28;19964;-64
2021/10/17 11:14:32;;;;;;;;;;;;;;;14.81;100.00;99480.41;4948053;28;20016;-64
2021/10/17 11:17:04;;;;;;;;;;;;;;;14.34;100.00;99478.78;4935199;28;20044;-64
2021/10/17 11:19:30;;;;;;;;;;;;;;;14.91;100.00;99479.09;4945422;28;20006;-64
2021/10/17 11:21:59;;;;;;;;;;;;;;;14.83;100.00;99470.81;4941296;28;19929;-64
2021/10/17 11:24:24;;;;;;;;;;;;;;;14.88;100.00;99468.03;4935389;28;19922;-64
2021/10/17 11:27:07;;;;;;;;;;;;;;;14.97;100.00;99471.06;4945273;28;19918;-62
2021/10/17 11:29:42;;;;;;;;;;;;;;;15.18;100.00;99471.06;4932708;28;19958;-64
2021/10/17 11:32:16;;;;;;;;;;;;;;;15.12;100.00;99467.00;4945935;28;19923;-64
2021/10/17 11:34:42;;;;;;;;;;;;;;;15.06;100.00;99468.09;4942662;28;19922;-64
2021/10/17 11:37:21;;;;;;;;;;;;;;;15.23;100.00;99464.75;4925486;28;19930;-64
2021/10/17 11:39:54;;;;;;;;;;;;;;;15.43;100.00;99465.63;4940040;28;19921;-67
2021/10/17 11:42:19;;;;;;;;;;;;;;;15.55;100.00;99453.84;4945069;28;19952;-64
2021/10/17 11:44:45;;;;;;;;;;;;;;;16.02;100.00;99463.84;4935758;28;20397;-64
2021/10/17 11:47:10;;;;;;;;;;;;;;;15.80;100.00;99453.59;4944791;28;19922;-67
2021/10/17 11:49:35;;;;;;;;;;;;;;;15.96;100.00;99454.56;4931854;28;19923;-68
2021/10/17 11:52:04;;;;;;;;;;;;;;;15.92;100.00;99458.25;4929449;28;19930;-67
2021/10/17 11:54:50;;;;;;;;;;;;;;;15.65;100.00;99455.13;4930897;28;21075;-67
2021/10/17 11:57:31;;;;;;;;;;;;;;;15.98;100.00;99452.75;4929148;28;19933;-67
2021/10/17 11:59:57;;;;;;;;;;;;;;;15.85;100.00;99452.50;4937438;28;19940;-67
2021/10/17 12:02:35;;;;;;;;;;;;;;;16.29;100.00;99456.50;4939128;28;20622;-67
2021/10/17 12:05:01;;;;;;;;;;;;;;;16.44;100.00;99445.34;4883529;28;19933;-67
2021/10/17 12:07:27;;;;;;;;;;;;;;;16.42;100.00;99441.13;4967349;28;20233;-66
2021/10/17 12:09:53;;;;;;;;;;;;;;;16.13;100.00;99434.78;4944897;28;20017;-67
2021/10/17 12:12:23;;;;;;;;;;;;;;;16.22;100.00;99435.16;4929734;28;19963;-67
2021/10/17 12:15:07;;;;;;;;;;;;;;;15.97;100.00;99437.25;4935504;28;20398;-67
2021/10/17 12:17:33;;;;;;;;;;;;;;;16.34;100.00;99438.09;4927423;28;20025;-67
2021/10/17 12:20:00;;;;;;;;;;;;;;;15.87;100.00;99432.50;4932187;28;20052;-67
2021/10/17 12:22:25;;;;;;;;;;;;;;;16.41;100.00;99434.25;4939596;28;19981;-64
2021/10/17 12:24:50;;;;;;;;;;;;;;;15.59;100.00;99435.47;4940048;28;19929;-63
2021/10/17 12:27:29;;;;;;;;;;;;;;;15.03;100.00;99425.88;4903870;28;20004;-63
2021/10/17 12:30:01;;;;;;;;;;;;;;;15.74;100.00;99426.19;4955718;28;20400;-64
2021/10/17 12:32:39;;;;;;;;;;;;;;;15.63;100.00;99431.00;4953439;28;19925;-64
2021/10/17 12:35:13;;;;;;;;;;;;;;;15.67;100.00;99429.94;4947478;28;19922;-64
2021/10/17 12:37:39;;;;;;;;;;;;;;;15.47;100.00;99426.50;4949587;28;19921;-64
2021/10/17 12:40:05;;;;;;;;;;;;;;;15.17;100.00;99431.31;4942012;28;19938;-64